sensor_id;sensor_type;location;lat;lon;timestamp;P1;durP1;ratioP1;P2;durP2;ratioP2
74912;SDS011;63878;55.624;37.304;2023-05-10T00:08:48;7.88;;;4.55;;
74912;SDS011;63878;55.624;37.304;2023-05-10T00:18:49;4.70;;;3.22;;
74912;SDS011;63878;55.624;37.304;2023-05-10T00:28:49;7.70;;;3.80;;
74912;SDS011;63878;55.624;37.304;2023-05-10T00:38:50;8.63;;;4.60;;
74912;SDS011;63878;55.624;37.304;2023-05-10T00:48:50;7.55;;;4.20;;
74912;SDS011;63878;55.624;37.304;2023-05-10T00:58:52;6.05;;;4.45;;
74912;SDS011;63878;55.624;37.304;2023-05-10T01:08:52;8.07;;;4.17;;
74912;SDS011;63878;55.624;37.304;2023-05-10T01:18:53;9.13;;;4.47;;
74912;SDS011;63878;55.624;37.304;2023-05-10T01:39:40;9.52;;;6.10;;
74912;SDS011;63878;55.624;37.304;2023-05-10T01:49:47;9.00;;;5.00;;
74912;SDS011;63878;55.624;37.304;2023-05-10T01:59:51;8.35;;;5.00;;
74912;SDS011;63878;55.624;37.304;2023-05-10T02:09:53;10.52;;;5.28;;
74912;SDS011;63878;55.624;37.304;2023-05-10T02:19:55;14.23;;;6.13;;
74912;SDS011;63878;55.624;37.304;2023-05-10T02:29:58;16.45;;;7.03;;
74912;SDS011;63878;55.624;37.304;2023-05-10T02:39:59;12.05;;;4.93;;
74912;SDS011;63878;55.624;37.304;2023-05-10T02:50:01;8.25;;;5.13;;
74912;SDS011;63878;55.624;37.304;2023-05-10T03:00:02;13.13;;;5.67;;
74912;SDS011;63878;55.624;37.304;2023-05-10T03:10:03;9.32;;;5.13;;
74912;SDS011;63878;55.624;37.304;2023-05-10T03:20:10;11.10;;;6.20;;
74912;SDS011;63878;55.624;37.304;2023-05-10T03:30:16;12.50;;;6.18;;
74912;SDS011;63878;55.624;37.304;2023-05-10T03:40:18;9.38;;;4.93;;
74912;SDS011;63878;55.624;37.304;2023-05-10T03:50:19;12.57;;;5.67;;
74912;SDS011;63878;55.624;37.304;2023-05-10T04:00:20;12.32;;;5.13;;
74912;SDS011;63878;55.624;37.304;2023-05-10T04:10:21;8.90;;;4.87;;
74912;SDS011;63878;55.624;37.304;2023-05-10T04:20:21;7.90;;;3.70;;
74912;SDS011;63878;55.624;37.304;2023-05-10T04:30:21;6.05;;;3.63;;
74912;SDS011;63878;55.624;37.304;2023-05-10T04:40:22;5.95;;;3.40;;
74912;SDS011;63878;55.624;37.304;2023-05-10T04:50:23;7.27;;;3.90;;
74912;SDS011;63878;55.624;37.304;2023-05-10T05:00:23;7.15;;;3.78;;
74912;SDS011;63878;55.624;37.304;2023-05-10T05:10:24;4.57;;;2.87;;
74912;SDS011;63878;55.624;37.304;2023-05-10T05:20:24;6.82;;;3.47;;
74912;SDS011;63878;55.624;37.304;2023-05-10T05:30:25;11.63;;;3.38;;
74912;SDS011;63878;55.624;37.304;2023-05-10T05:40:25;8.38;;;4.63;;
74912;SDS011;63878;55.624;37.304;2023-05-10T05:50:26;6.73;;;3.10;;
74912;SDS011;63878;55.624;37.304;2023-05-10T06:00:26;4.13;;;2.33;;
74912;SDS011;63878;55.624;37.304;2023-05-10T06:10:27;3.97;;;1.83;;
74912;SDS011;63878;55.624;37.304;2023-05-10T06:20:28;5.38;;;2.10;;
74912;SDS011;63878;55.624;37.304;2023-05-10T06:30:28;2.10;;;1.73;;
74912;SDS011;63878;55.624;37.304;2023-05-10T06:40:29;3.47;;;2.10;;
74912;SDS011;63878;55.624;37.304;2023-05-10T06:50:29;2.97;;;2.10;;
74912;SDS011;63878;55.624;37.304;2023-05-10T07:00:30;4.60;;;1.63;;
74912;SDS011;63878;55.624;37.304;2023-05-10T07:10:31;3.57;;;1.57;;
74912;SDS011;63878;55.624;37.304;2023-05-10T07:20:31;1.97;;;1.40;;
74912;SDS011;63878;55.624;37.304;2023-05-10T07:30:31;4.65;;;2.30;;
74912;SDS011;63878;55.624;37.304;2023-05-10T07:40:32;5.60;;;2.60;;
74912;SDS011;63878;55.624;37.304;2023-05-10T07:50:33;3.58;;;1.85;;
74912;SDS011;63878;55.624;37.304;2023-05-10T08:00:33;2.87;;;1.80;;
74912;SDS011;63878;55.624;37.304;2023-05-10T08:10:34;3.78;;;1.90;;
74912;SDS011;63878;55.624;37.304;2023-05-10T08:20:34;3.80;;;1.65;;
74912;SDS011;63878;55.624;37.304;2023-05-10T08:30:35;2.92;;;1.48;;
74912;SDS011;63878;55.624;37.304;2023-05-10T08:40:36;3.05;;;1.60;;
74912;SDS011;63878;55.624;37.304;2023-05-10T08:50:41;6.55;;;2.83;;
74912;SDS011;63878;55.624;37.304;2023-05-10T09:00:42;2.53;;;1.52;;
74912;SDS011;63878;55.624;37.304;2023-05-10T09:10:44;2.38;;;1.55;;
74912;SDS011;63878;55.624;37.304;2023-05-10T09:20:45;3.70;;;1.85;;
74912;SDS011;63878;55.624;37.304;2023-05-10T09:30:45;3.20;;;1.50;;
74912;SDS011;63878;55.624;37.304;2023-05-10T09:40:53;2.60;;;1.55;;
74912;SDS011;63878;55.624;37.304;2023-05-10T09:50:57;4.00;;;1.50;;
74912;SDS011;63878;55.624;37.304;2023-05-10T10:00:57;2.30;;;1.45;;
74912;SDS011;63878;55.624;37.304;2023-05-10T10:10:59;9.88;;;1.60;;
74912;SDS011;63878;55.624;37.304;2023-05-10T10:21:00;2.38;;;1.40;;
74912;SDS011;63878;55.624;37.304;2023-05-10T10:31:03;3.40;;;1.70;;
74912;SDS011;63878;55.624;37.304;2023-05-10T10:41:33;3.53;;;1.48;;
74912;SDS011;63878;55.624;37.304;2023-05-10T10:51:38;4.30;;;1.77;;
74912;SDS011;63878;55.624;37.304;2023-05-10T11:01:40;2.80;;;1.58;;
74912;SDS011;63878;55.624;37.304;2023-05-10T11:11:48;2.85;;;1.38;;
74912;SDS011;63878;55.624;37.304;2023-05-10T11:22:11;4.63;;;1.73;;
74912;SDS011;63878;55.624;37.304;2023-05-10T11:32:13;4.10;;;1.70;;
74912;SDS011;63878;55.624;37.304;2023-05-10T11:42:14;4.23;;;3.40;;
74912;SDS011;63878;55.624;37.304;2023-05-10T11:52:14;4.78;;;1.63;;
74912;SDS011;63878;55.624;37.304;2023-05-10T12:02:15;6.45;;;1.88;;
74912;SDS011;63878;55.624;37.304;2023-05-10T12:12:16;5.37;;;1.87;;
74912;SDS011;63878;55.624;37.304;2023-05-10T12:22:20;2.20;;;1.50;;
74912;SDS011;63878;55.624;37.304;2023-05-10T12:32:21;2.80;;;1.92;;
74912;SDS011;63878;55.624;37.304;2023-05-10T12:42:21;4.68;;;1.80;;
74912;SDS011;63878;55.624;37.304;2023-05-10T12:52:22;2.40;;;1.60;;
74912;SDS011;63878;55.624;37.304;2023-05-10T13:02:23;3.97;;;1.75;;
74912;SDS011;63878;55.624;37.304;2023-05-10T13:12:24;4.57;;;1.50;;
74912;SDS011;63878;55.624;37.304;2023-05-10T13:22:24;5.25;;;1.50;;
74912;SDS011;63878;55.624;37.304;2023-05-10T13:32:25;2.80;;;1.73;;
74912;SDS011;63878;55.624;37.304;2023-05-10T13:42:26;3.15;;;1.75;;
74912;SDS011;63878;55.624;37.304;2023-05-10T13:52:27;2.35;;;1.60;;
74912;SDS011;63878;55.624;37.304;2023-05-10T14:02:27;14.03;;;2.73;;
74912;SDS011;63878;55.624;37.304;2023-05-10T14:12:28;2.78;;;1.67;;
74912;SDS011;63878;55.624;37.304;2023-05-10T14:22:29;3.53;;;2.30;;
74912;SDS011;63878;55.624;37.304;2023-05-10T14:32:30;3.38;;;2.10;;
74912;SDS011;63878;55.624;37.304;2023-05-10T14:42:30;3.38;;;1.77;;
74912;SDS011;63878;55.624;37.304;2023-05-10T14:52:31;3.33;;;1.80;;
74912;SDS011;63878;55.624;37.304;2023-05-10T15:02:32;5.70;;;1.50;;
74912;SDS011;63878;55.624;37.304;2023-05-10T15:12:32;6.63;;;1.83;;
74912;SDS011;63878;55.624;37.304;2023-05-10T15:22:33;6.07;;;2.60;;
74912;SDS011;63878;55.624;37.304;2023-05-10T15:32:33;2.63;;;1.70;;
74912;SDS011;63878;55.624;37.304;2023-05-10T15:42:34;4.17;;;2.40;;
74912;SDS011;63878;55.624;37.304;2023-05-10T15:52:34;5.70;;;2.42;;
74912;SDS011;63878;55.624;37.304;2023-05-10T16:02:35;4.23;;;1.50;;
74912;SDS011;63878;55.624;37.304;2023-05-10T16:12:36;5.00;;;2.20;;
74912;SDS011;63878;55.624;37.304;2023-05-10T16:22:37;5.38;;;2.60;;
74912;SDS011;63878;55.624;37.304;2023-05-10T16:32:38;7.65;;;2.97;;
74912;SDS011;63878;55.624;37.304;2023-05-10T16:42:38;8.85;;;2.42;;
74912;SDS011;63878;55.624;37.304;2023-05-10T16:52:39;4.95;;;2.13;;
74912;SDS011;63878;55.624;37.304;2023-05-10T17:02:40;7.47;;;3.40;;
74912;SDS011;63878;55.624;37.304;2023-05-10T17:12:41;4.03;;;2.40;;
74912;SDS011;63878;55.624;37.304;2023-05-10T17:22:42;7.85;;;3.08;;
74912;SDS011;63878;55.624;37.304;2023-05-10T17:32:43;7.03;;;2.90;;
74912;SDS011;63878;55.624;37.304;2023-05-10T17:42:44;12.10;;;4.10;;
74912;SDS011;63878;55.624;37.304;2023-05-10T17:52:44;8.95;;;3.72;;
74912;SDS011;63878;55.624;37.304;2023-05-10T18:02:45;10.38;;;4.15;;
74912;SDS011;63878;55.624;37.304;2023-05-10T18:12:46;11.57;;;3.70;;
74912;SDS011;63878;55.624;37.304;2023-05-10T18:22:47;13.60;;;4.20;;
74912;SDS011;63878;55.624;37.304;2023-05-10T18:32:47;9.40;;;3.80;;
74912;SDS011;63878;55.624;37.304;2023-05-10T18:42:48;7.60;;;3.85;;
74912;SDS011;63878;55.624;37.304;2023-05-10T18:52:48;10.77;;;4.68;;
74912;SDS011;63878;55.624;37.304;2023-05-10T19:02:49;15.73;;;6.00;;
74912;SDS011;63878;55.624;37.304;2023-05-10T19:12:50;17.67;;;5.50;;
74912;SDS011;63878;55.624;37.304;2023-05-10T19:22:51;13.35;;;4.80;;
74912;SDS011;63878;55.624;37.304;2023-05-10T19:32:52;10.95;;;4.32;;
74912;SDS011;63878;55.624;37.304;2023-05-10T19:42:52;10.25;;;4.22;;
74912;SDS011;63878;55.624;37.304;2023-05-10T19:52:53;9.95;;;4.13;;
74912;SDS011;63878;55.624;37.304;2023-05-10T20:02:54;14.27;;;5.43;;
74912;SDS011;63878;55.624;37.304;2023-05-10T20:12:54;15.97;;;5.53;;
74912;SDS011;63878;55.624;37.304;2023-05-10T20:22:55;12.98;;;5.55;;
74912;SDS011;63878;55.624;37.304;2023-05-10T20:32:55;6.85;;;3.63;;
74912;SDS011;63878;55.624;37.304;2023-05-10T20:42:56;6.03;;;3.53;;
74912;SDS011;63878;55.624;37.304;2023-05-10T20:52:57;10.00;;;3.83;;
74912;SDS011;63878;55.624;37.304;2023-05-10T21:02:58;9.88;;;5.10;;
74912;SDS011;63878;55.624;37.304;2023-05-10T21:12:59;9.75;;;4.70;;
74912;SDS011;63878;55.624;37.304;2023-05-10T21:22:59;8.33;;;4.77;;
74912;SDS011;63878;55.624;37.304;2023-05-10T21:33:00;6.37;;;4.10;;
74912;SDS011;63878;55.624;37.304;2023-05-10T21:43:01;7.72;;;4.55;;
74912;SDS011;63878;55.624;37.304;2023-05-10T21:53:02;8.90;;;4.18;;
74912;SDS011;63878;55.624;37.304;2023-05-10T22:03:02;13.40;;;6.90;;
74912;SDS011;63878;55.624;37.304;2023-05-10T22:13:03;10.52;;;4.82;;
74912;SDS011;63878;55.624;37.304;2023-05-10T22:23:04;12.05;;;5.05;;
74912;SDS011;63878;55.624;37.304;2023-05-10T22:33:04;10.90;;;5.57;;
74912;SDS011;63878;55.624;37.304;2023-05-10T22:43:05;14.13;;;6.00;;
74912;SDS011;63878;55.624;37.304;2023-05-10T22:53:05;8.33;;;4.60;;
74912;SDS011;63878;55.624;37.304;2023-05-10T23:03:06;11.00;;;5.43;;
74912;SDS011;63878;55.624;37.304;2023-05-10T23:13:06;11.50;;;5.47;;
74912;SDS011;63878;55.624;37.304;2023-05-10T23:23:07;10.48;;;5.07;;
74912;SDS011;63878;55.624;37.304;2023-05-10T23:33:08;10.45;;;5.63;;
74912;SDS011;63878;55.624;37.304;2023-05-10T23:43:09;10.93;;;5.87;;
74912;SDS011;63878;55.624;37.304;2023-05-10T23:53:09;14.00;;;5.07;;
